Time;durP1;ratioP1;P1;durP2;ratioP2;P2;SDS_P1;SDS_P2;PMS_P1;PMS_P2;Temp;Humidity;BMP_temperature;BMP_pressure;BME280_temperature;BME280_humidity;BME280_pressure;Samples;Min_cycle;Max_cycle;Signal;HPM_P1;HPM_P2
2023/05/14 00:01:53;;;;;;;2.88;1.00;;;10.10;99.90;;;;;;4999530;28;20029;-84
2023/05/14 00:04:19;;;;;;;2.40;1.10;;;10.10;99.90;;;;;;4999864;28;20021;-84
2023/05/14 00:06:45;;;;;;;2.70;0.73;;;10.10;99.90;;;;;;4999753;28;20025;-84
2023/05/14 00:09:11;;;;;;;2.25;0.90;;;10.00;99.90;;;;;;5016034;28;20022;-84
2023/05/14 00:11:37;;;;;;;2.05;0.70;;;10.00;99.90;;;;;;4983831;28;20029;-84
2023/05/14 00:14:03;;;;;;;1.25;0.77;;;10.00;99.90;;;;;;4999598;28;20497;-84
2023/05/14 00:16:29;;;;;;;2.17;1.05;;;9.90;99.90;;;;;;4995496;28;20491;-85
2023/05/14 00:18:55;;;;;;;1.75;0.85;;;10.00;99.90;;;;;;5019160;28;20417;-84
2023/05/14 00:21:20;;;;;;;2.13;0.90;;;10.00;99.90;;;;;;5019113;28;20039;-84
2023/05/14 00:23:46;;;;;;;2.20;1.40;;;9.90;99.90;;;;;;5002889;28;20029;-84
2023/05/14 00:26:12;;;;;;;2.17;1.20;;;9.90;99.90;;;;;;5019170;28;20029;-84
2023/05/14 00:28:37;;;;;;;2.08;1.30;;;9.90;99.90;;;;;;5019170;28;20496;-85
2023/05/14 00:31:03;;;;;;;3.15;1.27;;;9.80;99.90;;;;;;5021721;28;20081;-84
2023/05/14 00:33:29;;;;;;;1.65;1.15;;;9.70;99.90;;;;;;5041908;28;20054;-84
2023/05/14 00:35:55;;;;;;;2.85;1.10;;;9.70;99.90;;;;;;5029869;28;20050;-84
2023/05/14 00:38:22;;;;;;;2.42;1.25;;;9.70;99.90;;;;;;5034601;28;20032;-84
2023/05/14 00:40:50;;;;;;;2.13;1.20;;;9.70;99.90;;;;;;5043028;28;20029;-84
2023/05/14 00:43:22;;;;;;;1.58;1.10;;;9.70;99.90;;;;;;5027107;28;20037;-84
2023/05/14 00:45:53;;;;;;;2.33;1.52;;;9.70;99.90;;;;;;5039725;28;20025;-84
2023/05/14 00:48:20;;;;;;;2.15;1.40;;;9.70;99.90;;;;;;5044012;28;20094;-84
2023/05/14 00:50:46;;;;;;;2.15;1.30;;;9.70;99.90;;;;;;5036498;28;20059;-85
2023/05/14 00:53:12;;;;;;;2.13;1.30;;;9.80;99.90;;;;;;5040178;28;20037;-85
2023/05/14 00:55:39;;;;;;;2.22;1.58;;;9.70;99.90;;;;;;5039336;28;20539;-84
2023/05/14 00:58:11;;;;;;;2.55;1.33;;;9.70;99.90;;;;;;5039209;28;20048;-84
2023/05/14 01:00:38;;;;;;;2.30;1.70;;;9.70;99.90;;;;;;5039265;28;20033;-84
2023/05/14 01:03:05;;;;;;;1.95;1.30;;;9.70;99.90;;;;;;5039041;28;20021;-84
2023/05/14 01:05:52;;;;;;;2.33;1.52;;;9.70;99.90;;;;;;5039914;28;20036;-85
2023/05/14 01:08:49;;;;;;;2.35;1.42;;;9.70;99.90;;;;;;5039038;28;20074;-84
2023/05/14 01:11:28;;;;;;;2.25;1.10;;;9.70;99.90;;;;;;5023552;28;20057;-84
2023/05/14 01:14:12;;;;;;;2.70;1.15;;;9.70;99.90;;;;;;5019311;28;20036;-84
2023/05/14 01:16:39;;;;;;;2.40;1.35;;;9.70;99.90;;;;;;5019040;28;20036;-84
2023/05/14 01:19:16;;;;;;;2.45;1.25;;;9.60;99.90;;;;;;5019353;28;20037;-84
2023/05/14 01:21:42;;;;;;;2.65;1.40;;;9.60;99.90;;;;;;5019015;28;20087;-84
2023/05/14 01:24:08;;;;;;;2.58;1.10;;;9.50;99.90;;;;;;5051362;28;20021;-84
2023/05/14 01:26:35;;;;;;;1.83;1.08;;;9.50;99.90;;;;;;5066371;28;20040;-84
2023/05/14 01:29:18;;;;;;;2.75;0.90;;;9.40;99.90;;;;;;5058426;28;20025;-84
2023/05/14 01:31:45;;;;;;;1.80;1.00;;;9.40;99.90;;;;;;5041531;28;20481;-85
2023/05/14 01:34:12;;;;;;;2.25;0.80;;;9.30;99.90;;;;;;5042810;28;20131;-84
2023/05/14 01:36:40;;;;;;;3.35;0.90;;;9.30;99.90;;;;;;4987924;28;20083;-84
2023/05/14 01:39:10;;;;;;;2.20;0.90;;;9.30;99.90;;;;;;5020440;28;20052;-84
2023/05/14 01:41:38;;;;;;;2.50;1.00;;;9.30;99.90;;;;;;5021809;28;20061;-84
2023/05/14 01:44:04;;;;;;;2.40;1.10;;;9.30;99.90;;;;;;5040008;28;20112;-84
2023/05/14 01:46:31;;;;;;;2.05;1.10;;;9.30;99.90;;;;;;5039585;28;20032;-84
2023/05/14 01:48:57;;;;;;;1.63;0.90;;;9.30;99.90;;;;;;5055564;28;20369;-84
2023/05/14 01:51:23;;;;;;;2.17;1.20;;;9.30;99.90;;;;;;5044286;28;20082;-84
2023/05/14 01:53:48;;;;;;;1.70;1.00;;;9.30;99.90;;;;;;5014487;28;20045;-84
2023/05/14 01:56:14;;;;;;;2.30;1.10;;;9.20;99.90;;;;;;4987313;28;20044;-84
2023/05/14 01:58:40;;;;;;;1.45;0.85;;;9.20;99.90;;;;;;5038083;28;20037;-84
2023/05/14 02:01:05;;;;;;;1.63;0.93;;;9.20;99.90;;;;;;5056382;28;20090;-84
2023/05/14 02:03:31;;;;;;;1.67;0.80;;;9.20;99.90;;;;;;5031349;28;20024;-84
2023/05/14 02:05:57;;;;;;;2.08;1.00;;;9.20;99.90;;;;;;5046672;28;20031;-84
2023/05/14 02:08:22;;;;;;;2.08;1.02;;;9.20;99.90;;;;;;5039356;28;20381;-84
2023/05/14 02:10:48;;;;;;;1.33;0.70;;;9.30;99.90;;;;;;5038846;28;20037;-84
2023/05/14 02:13:14;;;;;;;2.15;1.05;;;9.30;99.90;;;;;;5022457;28;20474;-84
2023/05/14 02:15:39;;;;;;;2.58;0.80;;;9.30;99.90;;;;;;5031753;28;20028;-84
2023/05/14 02:18:05;;;;;;;1.58;0.88;;;9.30;99.90;;;;;;5024948;28;20033;-84
2023/05/14 02:20:31;;;;;;;1.73;0.90;;;9.30;99.90;;;;;;5058332;28;20034;-84
2023/05/14 02:22:56;;;;;;;1.77;1.02;;;9.30;99.90;;;;;;5038631;28;20124;-84
2023/05/14 02:25:22;;;;;;;2.22;1.25;;;9.20;99.90;;;;;;5038599;28;20021;-84
2023/05/14 02:27:48;;;;;;;3.35;1.25;;;9.20;99.90;;;;;;5021909;28;20025;-84
2023/05/14 02:30:14;;;;;;;1.60;1.10;;;9.20;99.90;;;;;;5022197;28;20516;-83
2023/05/14 02:32:39;;;;;;;2.53;0.98;;;9.20;99.90;;;;;;5054941;28;20036;-84
2023/05/14 02:35:06;;;;;;;2.17;1.20;;;9.20;99.90;;;;;;5027059;28;20480;-84
2023/05/14 02:37:31;;;;;;;2.72;1.15;;;9.20;99.90;;;;;;5035450;28;20029;-84
2023/05/14 02:39:57;;;;;;;1.70;0.90;;;9.20;99.90;;;;;;5041730;28;20032;-83
2023/05/14 02:42:23;;;;;;;2.72;0.90;;;9.20;99.90;;;;;;5041831;28;20078;-84
2023/05/14 02:44:48;;;;;;;4.35;1.20;;;9.20;99.90;;;;;;5011702;28;20075;-83
2023/05/14 02:47:14;;;;;;;2.78;1.20;;;9.30;99.90;;;;;;5054422;28;20086;-84
2023/05/14 02:49:39;;;;;;;2.72;1.42;;;9.30;99.90;;;;;;5038257;28;20029;-83
2023/05/14 02:52:05;;;;;;;2.35;1.40;;;9.20;99.90;;;;;;5035720;28;20124;-83
2023/05/14 02:54:31;;;;;;;1.95;1.20;;;9.20;99.90;;;;;;5025129;28;20063;-83
2023/05/14 02:56:57;;;;;;;2.03;1.10;;;9.30;99.90;;;;;;5027746;28;20079;-84
2023/05/14 02:59:23;;;;;;;1.88;1.05;;;9.20;99.90;;;;;;5005753;28;20029;-84
2023/05/14 03:01:49;;;;;;;1.77;0.73;;;9.20;99.90;;;;;;5036515;28;20020;-84
2023/05/14 03:04:15;;;;;;;1.63;0.70;;;9.20;99.90;;;;;;5042064;28;20025;-84
2023/05/14 03:06:40;;;;;;;1.50;0.65;;;9.10;99.90;;;;;;5064390;28;20052;-84
2023/05/14 03:09:06;;;;;;;1.42;0.75;;;9.20;99.90;;;;;;5040529;28;20029;-84
2023/05/14 03:11:32;;;;;;;0.82;0.55;;;9.10;99.90;;;;;;5018603;28;20114;-84
2023/05/14 03:13:58;;;;;;;1.23;0.70;;;9.10;99.90;;;;;;5018486;28;20025;-84
2023/05/14 03:16:23;;;;;;;1.30;0.82;;;9.00;99.90;;;;;;5047527;28;20037;-84
2023/05/14 03:18:49;;;;;;;2.78;0.80;;;9.00;99.90;;;;;;5067103;28;20443;-84
2023/05/14 03:21:15;;;;;;;1.90;0.80;;;9.00;99.90;;;;;;5041191;28;20033;-83
2023/05/14 03:23:42;;;;;;;1.40;0.80;;;9.00;99.90;;;;;;5057953;28;20036;-84
2023/05/14 03:26:08;;;;;;;1.73;0.90;;;9.00;99.90;;;;;;5041524;28;20035;-84
2023/05/14 03:28:33;;;;;;;1.88;1.00;;;9.00;99.90;;;;;;5041167;28;20029;-83
2023/05/14 03:30:59;;;;;;;2.28;0.90;;;9.00;99.90;;;;;;5025087;28;20469;-84
2023/05/14 03:33:25;;;;;;;2.03;0.90;;;9.00;99.90;;;;;;5040967;28;20032;-84
2023/05/14 03:35:51;;;;;;;3.13;1.20;;;8.90;99.90;;;;;;5041123;28;20056;-84
2023/05/14 03:38:16;;;;;;;1.60;0.93;;;8.90;99.90;;;;;;5049708;28;20489;-84
2023/05/14 03:40:43;;;;;;;1.70;1.05;;;8.90;99.90;;;;;;5024460;28;20035;-84
2023/05/14 03:43:10;;;;;;;1.65;0.82;;;8.90;99.90;;;;;;5070302;28;20021;-84
2023/05/14 03:45:35;;;;;;;1.35;0.70;;;8.90;99.90;;;;;;5051409;28;20022;-84
2023/05/14 03:48:01;;;;;;;1.60;0.90;;;8.90;99.90;;;;;;5041277;28;20032;-84
2023/05/14 03:50:27;;;;;;;2.45;0.90;;;8.90;99.90;;;;;;5021684;28;20438;-84
2023/05/14 03:52:53;;;;;;;2.03;1.10;;;8.90;99.90;;;;;;5021487;28;20033;-84
2023/05/14 03:55:20;;;;;;;2.92;0.98;;;8.90;99.90;;;;;;5037744;28;20057;-84
2023/05/14 03:57:48;;;;;;;1.10;0.57;;;8.90;99.90;;;;;;5037937;28;20481;-84
2023/05/14 04:00:15;;;;;;;3.42;0.90;;;8.80;99.90;;;;;;5037959;28;20029;-84
2023/05/14 04:02:41;;;;;;;1.67;0.73;;;8.80;99.90;;;;;;5037677;28;20021;-83
2023/05/14 04:05:07;;;;;;;1.17;0.68;;;8.80;99.90;;;;;;5021195;28;20029;-84
2023/05/14 04:07:33;;;;;;;1.20;0.60;;;8.80;99.90;;;;;;5036591;28;20028;-84
2023/05/14 04:09:59;;;;;;;1.52;0.85;;;8.80;99.90;;;;;;5037803;28;20484;-84
2023/05/14 04:12:25;;;;;;;2.35;1.08;;;8.80;99.90;;;;;;5021311;28;20029;-84
2023/05/14 04:14:51;;;;;;;1.88;1.20;;;8.80;99.90;;;;;;5037650;28;20113;-83
2023/05/14 04:17:17;;;;;;;1.65;0.90;;;8.80;99.90;;;;;;5021334;28;20485;-83
2023/05/14 04:19:42;;;;;;;1.65;0.85;;;8.80;99.90;;;;;;5020366;28;20071;-84
2023/05/14 04:22:08;;;;;;;2.85;1.20;;;8.80;99.90;;;;;;5021115;28;20029;-84
2023/05/14 04:24:34;;;;;;;2.00;1.08;;;8.80;99.90;;;;;;5056965;28;20029;-84
2023/05/14 04:27:00;;;;;;;1.92;1.10;;;8.80;99.90;;;;;;5056787;28;20029;-84
2023/05/14 04:29:26;;;;;;;1.20;0.80;;;8.70;99.90;;;;;;5058068;28;20021;-84
2023/05/14 04:31:52;;;;;;;1.50;0.80;;;8.70;99.90;;;;;;5025907;28;20030;-84
2023/05/14 04:34:17;;;;;;;2.15;1.00;;;8.70;99.90;;;;;;5002070;28;20034;-84
2023/05/14 04:36:43;;;;;;;2.22;1.10;;;8.80;99.90;;;;;;4985051;28;20083;-84
2023/05/14 04:39:11;;;;;;;1.67;1.00;;;8.80;99.90;;;;;;5001771;28;20034;-84
2023/05/14 04:41:37;;;;;;;1.40;0.82;;;8.80;99.90;;;;;;5036598;28;20544;-84
2023/05/14 04:44:03;;;;;;;2.13;1.00;;;8.90;99.90;;;;;;5024279;28;20060;-84
2023/05/14 04:46:29;;;;;;;1.20;0.80;;;8.90;99.90;;;;;;5057026;28;20033;-84
2023/05/14 04:48:55;;;;;;;2.90;1.00;;;8.90;99.90;;;;;;5030981;28;20546;-84
2023/05/14 04:51:21;;;;;;;2.35;1.10;;;8.80;99.90;;;;;;5021408;28;20037;-84
2023/05/14 04:53:47;;;;;;;1.90;1.10;;;8.80;99.90;;;;;;5016549;28;20061;-82
2023/05/14 04:56:13;;;;;;;2.10;1.10;;;8.70;99.90;;;;;;5034221;28;20089;-82
2023/05/14 04:58:38;;;;;;;2.60;1.65;;;8.70;99.90;;;;;;5038050;28;20042;-81
2023/05/14 05:01:04;;;;;;;3.53;1.80;;;8.60;99.90;;;;;;5053867;28;20056;-81
2023/05/14 05:03:31;;;;;;;3.75;2.22;;;8.60;99.90;;;;;;5055280;28;20032;-81
2023/05/14 05:05:59;;;;;;;3.63;2.22;;;8.60;99.90;;;;;;5056138;28;20033;-82
2023/05/14 05:08:25;;;;;;;3.05;2.35;;;8.60;99.90;;;;;;5055665;28;20064;-81
2023/05/14 05:10:51;;;;;;;5.43;2.30;;;8.60;99.90;;;;;;5037977;28;20040;-81
2023/05/14 05:13:16;;;;;;;3.28;1.83;;;8.70;99.90;;;;;;5037205;28;20040;-81
2023/05/14 05:15:42;;;;;;;3.50;2.20;;;8.80;99.90;;;;;;5054111;28;20037;-81
2023/05/14 05:18:08;;;;;;;3.50;1.70;;;8.90;99.90;;;;;;5054124;28;20044;-82
2023/05/14 05:20:34;;;;;;;3.55;1.92;;;9.00;99.90;;;;;;5057511;28;20032;-81
2023/05/14 05:23:00;;;;;;;2.70;1.80;;;9.00;99.90;;;;;;5058906;28;20095;-81
2023/05/14 05:25:26;;;;;;;2.88;1.92;;;9.00;99.90;;;;;;5057772;28;20049;-81
2023/05/14 05:27:52;;;;;;;2.80;1.77;;;9.10;99.90;;;;;;5059912;28;20025;-82
2023/05/14 05:30:18;;;;;;;2.70;1.65;;;9.10;99.90;;;;;;5059057;28;20029;-80
2023/05/14 05:32:43;;;;;;;3.67;1.48;;;9.10;99.90;;;;;;5040335;28;20469;-82
2023/05/14 05:35:09;;;;;;;2.30;1.50;;;9.20;99.90;;;;;;5073905;28;20044;-81
2023/05/14 05:37:35;;;;;;;1.98;1.23;;;9.30;99.90;;;;;;5041055;28;20101;-81
2023/05/14 05:40:00;;;;;;;2.67;1.38;;;9.30;99.90;;;;;;5040603;28;20036;-82
2023/05/14 05:42:26;;;;;;;2.25;1.40;;;9.40;99.90;;;;;;5045300;28;20108;-82
2023/05/14 05:44:52;;;;;;;2.88;1.38;;;9.50;99.90;;;;;;5058154;28;20029;-82
2023/05/14 05:47:17;;;;;;;2.78;2.00;;;9.60;99.90;;;;;;5055875;28;20036;-82
2023/05/14 05:49:43;;;;;;;2.85;1.65;;;9.70;99.90;;;;;;5039991;28;20021;-81
2023/05/14 05:52:09;;;;;;;4.38;2.00;;;9.70;99.90;;;;;;5058909;28;20087;-82
2023/05/14 05:54:35;;;;;;;3.70;1.30;;;9.70;99.90;;;;;;5040159;28;20055;-81
2023/05/14 05:57:00;;;;;;;3.25;1.67;;;9.70;99.90;;;;;;5058601;28;20048;-82
2023/05/14 05:59:26;;;;;;;2.22;1.40;;;9.80;99.90;;;;;;5039940;28;20033;-81
2023/05/14 06:01:52;;;;;;;2.80;1.50;;;9.80;99.90;;;;;;5028600;28;20060;-82
2023/05/14 06:04:17;;;;;;;2.83;1.60;;;9.90;99.90;;;;;;5078358;28;20389;-81
2023/05/14 06:06:43;;;;;;;2.88;2.08;;;9.80;99.90;;;;;;5048654;28;20029;-82
2023/05/14 06:09:09;;;;;;;3.25;1.88;;;9.90;99.90;;;;;;5057455;28;20029;-81
2023/05/14 06:11:34;;;;;;;3.10;1.90;;;9.90;99.90;;;;;;5060913;28;20024;-81
2023/05/14 06:14:00;;;;;;;3.60;2.20;;;9.90;99.90;;;;;;5043803;28;20031;-81
2023/05/14 06:16:26;;;;;;;2.95;1.92;;;9.80;99.90;;;;;;5058291;28;20058;-82
2023/05/14 06:18:53;;;;;;;4.32;2.30;;;9.80;99.90;;;;;;5031147;28;20033;-81
2023/05/14 06:21:19;;;;;;;3.65;2.38;;;9.80;99.90;;;;;;5037739;28;20115;-81
2023/05/14 06:23:44;;;;;;;4.38;2.20;;;9.80;99.90;;;;;;5043627;28;20053;-81
2023/05/14 06:26:10;;;;;;;3.60;2.25;;;9.80;99.90;;;;;;5056966;28;20057;-81
2023/05/14 06:28:36;;;;;;;4.35;2.10;;;9.90;99.90;;;;;;5038201;28;20052;-81
2023/05/14 06:31:01;;;;;;;3.22;2.20;;;10.00;99.90;;;;;;5049601;28;20029;-81
2023/05/14 06:33:30;;;;;;;3.55;2.08;;;10.00;99.90;;;;;;5039238;28;20357;-82
2023/05/14 06:35:59;;;;;;;3.92;2.35;;;10.10;99.90;;;;;;5056295;28;20029;-82
2023/05/14 06:38:25;;;;;;;4.47;2.28;;;10.10;99.90;;;;;;5057593;28;20025;-82
2023/05/14 06:40:54;;;;;;;4.53;2.42;;;10.10;99.90;;;;;;5054842;28;20051;-82
2023/05/14 06:43:20;;;;;;;5.07;2.92;;;10.20;99.90;;;;;;5065466;28;20081;-82
2023/05/14 06:45:52;;;;;;;5.32;3.90;;;10.20;99.90;;;;;;5055612;28;20087;-81
2023/05/14 06:48:18;;;;;;;4.95;3.17;;;10.20;99.90;;;;;;5077009;28;20104;-81
2023/05/14 06:50:45;;;;;;;4.00;2.97;;;10.30;99.90;;;;;;5058894;28;20384;-81
2023/05/14 06:53:11;;;;;;;4.78;3.08;;;10.40;99.90;;;;;;5041054;28;20036;-81
2023/05/14 06:55:37;;;;;;;4.18;3.25;;;10.40;99.90;;;;;;5071647;28;20388;-82
2023/05/14 06:58:02;;;;;;;5.40;3.45;;;10.50;99.90;;;;;;5042819;28;20028;-81
2023/05/14 07:00:29;;;;;;;4.45;3.10;;;10.60;99.90;;;;;;5059467;28;20111;-82
2023/05/14 07:02:55;;;;;;;4.65;3.20;;;10.70;99.90;;;;;;5060250;28;20021;-81
2023/05/14 07:05:20;;;;;;;5.75;3.03;;;10.80;99.90;;;;;;5059587;28;20043;-81
2023/05/14 07:07:46;;;;;;;4.05;3.05;;;10.80;99.90;;;;;;5042636;28;20040;-82
2023/05/14 07:10:11;;;;;;;5.15;3.30;;;10.80;99.90;;;;;;5079099;28;20111;-81
2023/05/14 07:12:37;;;;;;;4.30;2.90;;;10.80;99.90;;;;;;5043384;28;20029;-81
2023/05/14 07:15:03;;;;;;;3.80;2.60;;;10.80;99.90;;;;;;5041581;28;20032;-81
2023/05/14 07:17:32;;;;;;;3.95;2.50;;;10.80;99.90;;;;;;5038619;28;20040;-81
2023/05/14 07:19:58;;;;;;;4.78;2.90;;;10.90;99.90;;;;;;5036949;28;20060;-81
2023/05/14 07:22:23;;;;;;;4.88;2.58;;;11.00;99.90;;;;;;5054975;28;20037;-81
2023/05/14 07:24:49;;;;;;;4.03;2.40;;;11.00;99.90;;;;;;5042088;28;20020;-81
2023/05/14 07:27:16;;;;;;;4.95;2.60;;;11.00;99.90;;;;;;5053293;28;20037;-81
2023/05/14 07:29:41;;;;;;;4.43;2.75;;;11.10;99.90;;;;;;5071284;28;20031;-81
2023/05/14 07:32:07;;;;;;;2.42;1.50;;;11.10;99.90;;;;;;5047020;28;20123;-82
2023/05/14 07:34:33;;;;;;;2.45;1.50;;;11.10;99.90;;;;;;5025596;28;20039;-82
2023/05/14 07:36:59;;;;;;;3.20;1.80;;;11.10;99.90;;;;;;5073512;28;20032;-81
2023/05/14 07:39:25;;;;;;;3.08;2.10;;;11.20;99.90;;;;;;5058047;28;20584;-81
2023/05/14 07:41:51;;;;;;;2.45;1.65;;;11.20;99.90;;;;;;5059495;28;20048;-81
2023/05/14 07:44:17;;;;;;;3.10;1.95;;;11.30;99.90;;;;;;5060269;28;20025;-82
2023/05/14 07:46:43;;;;;;;2.70;1.45;;;11.40;99.90;;;;;;5031512;28;20119;-81
2023/05/14 07:49:08;;;;;;;3.30;1.92;;;11.40;99.90;;;;;;5059518;28;20033;-81
2023/05/14 07:51:34;;;;;;;2.72;1.52;;;11.40;99.90;;;;;;5039243;28;20078;-82
2023/05/14 07:54:00;;;;;;;2.50;1.50;;;11.50;99.90;;;;;;5034331;28;20025;-82
2023/05/14 07:56:25;;;;;;;2.47;1.73;;;11.60;99.90;;;;;;5022352;28;20508;-82
2023/05/14 07:58:51;;;;;;;2.50;1.50;;;11.70;99.90;;;;;;5023612;28;20170;-81
2023/05/14 08:01:17;;;;;;;2.45;1.40;;;11.80;99.90;;;;;;5039100;28;20067;-82
2023/05/14 08:03:43;;;;;;;3.03;1.23;;;11.90;99.90;;;;;;5041153;28;20050;-82
2023/05/14 08:06:09;;;;;;;4.05;1.45;;;12.00;99.90;;;;;;5049263;28;20032;-82
2023/05/14 08:08:35;;;;;;;2.55;1.73;;;12.00;99.90;;;;;;5039127;28;20033;-82
2023/05/14 08:11:03;;;;;;;2.17;1.42;;;12.00;99.90;;;;;;5046370;28;20071;-82
2023/05/14 08:13:29;;;;;;;2.58;1.52;;;12.00;99.90;;;;;;5039020;28;20080;-82
2023/05/14 08:15:55;;;;;;;2.22;1.60;;;12.00;99.90;;;;;;5067552;28;20024;-81
2023/05/14 08:18:21;;;;;;;2.92;1.70;;;12.10;99.90;;;;;;5068405;28;20071;-81
2023/05/14 08:20:47;;;;;;;1.73;1.15;;;12.10;99.90;;;;;;5069547;28;20064;-83
2023/05/14 08:23:13;;;;;;;2.42;1.45;;;12.20;99.90;;;;;;5066600;28;20070;-81
2023/05/14 08:25:38;;;;;;;2.30;1.60;;;12.30;99.90;;;;;;5072695;28;20021;-82
2023/05/14 08:28:04;;;;;;;2.22;1.48;;;12.30;99.90;;;;;;5040995;28;20378;-82
2023/05/14 08:30:30;;;;;;;2.42;1.65;;;12.40;99.90;;;;;;5025523;28;20053;-82
2023/05/14 08:32:57;;;;;;;2.65;1.50;;;12.40;99.90;;;;;;5051076;28;20028;-82
2023/05/14 08:35:23;;;;;;;2.20;1.33;;;12.40;99.90;;;;;;5070836;28;20028;-81
2023/05/14 08:37:49;;;;;;;2.30;1.25;;;12.40;99.90;;;;;;5042881;28;20033;-82
2023/05/14 08:40:15;;;;;;;2.17;1.40;;;12.40;99.90;;;;;;5069632;28;20473;-82
2023/05/14 08:42:42;;;;;;;2.58;1.20;;;12.50;99.90;;;;;;5042062;28;20020;-82
2023/05/14 08:45:32;;;;;;;1.35;0.93;;;12.60;99.90;;;;;;5021984;28;20054;-82
2023/05/14 08:48:00;;;;;;;1.83;1.20;;;12.70;99.90;;;;;;5036012;28;20599;-82
2023/05/14 08:50:26;;;;;;;1.85;1.10;;;12.70;99.90;;;;;;5036740;28;20128;-82
2023/05/14 08:52:52;;;;;;;2.20;1.08;;;12.70;99.90;;;;;;5048983;28;20040;-82
2023/05/14 08:55:19;;;;;;;3.65;1.33;;;12.80;99.90;;;;;;5042202;28;20417;-82
2023/05/14 08:57:45;;;;;;;2.90;1.80;;;12.80;99.90;;;;;;5061726;28;20028;-82
2023/05/14 09:00:11;;;;;;;2.58;1.40;;;12.90;99.90;;;;;;5052105;28;20037;-82
2023/05/14 09:02:39;;;;;;;2.35;1.50;;;12.90;99.90;;;;;;5058069;28;20033;-82
2023/05/14 09:05:06;;;;;;;2.75;1.80;;;13.00;99.90;;;;;;5058057;28;20104;-81
2023/05/14 09:07:32;;;;;;;2.00;1.33;;;13.00;99.90;;;;;;5019864;28;20115;-81
2023/05/14 09:09:58;;;;;;;1.27;1.08;;;13.10;99.90;;;;;;5023294;28;20032;-81
2023/05/14 09:12:25;;;;;;;2.60;1.20;;;13.20;99.90;;;;;;5057039;28;20481;-81
2023/05/14 09:14:50;;;;;;;2.78;1.50;;;13.20;99.90;;;;;;5057066;28;20047;-81
2023/05/14 09:17:17;;;;;;;2.05;1.48;;;13.20;99.90;;;;;;5039268;28;20029;-82
2023/05/14 09:19:46;;;;;;;2.83;1.48;;;13.20;99.90;;;;;;5022649;28;20033;-81
2023/05/14 09:22:13;;;;;;;2.00;1.50;;;13.30;99.90;;;;;;5023059;28;20028;-82
2023/05/14 09:24:39;;;;;;;1.77;1.08;;;13.40;99.90;;;;;;5022712;28;20080;-82
2023/05/14 09:27:05;;;;;;;3.95;1.45;;;13.40;99.90;;;;;;5023495;28;20498;-82
2023/05/14 09:29:32;;;;;;;9.50;4.03;;;13.40;99.90;;;;;;5039024;28;20094;-82
2023/05/14 09:31:59;;;;;;;4.55;1.60;;;13.50;99.90;;;;;;5057084;28;20519;-82
2023/05/14 09:34:36;;;;;;;6.65;3.25;;;13.50;99.90;;;;;;5056767;28;20029;-82
2023/05/14 09:37:07;;;;;;;4.13;2.15;;;13.60;99.90;;;;;;5039207;28;20093;-81
2023/05/14 09:39:37;;;;;;;3.30;1.60;;;13.80;99.90;;;;;;5056803;28;20488;-82
2023/05/14 09:42:03;;;;;;;3.03;1.50;;;13.90;99.90;;;;;;5038974;28;20116;-82
2023/05/14 09:44:29;;;;;;;4.40;1.73;;;14.00;99.90;;;;;;5038712;28;20500;-82
2023/05/14 09:46:55;;;;;;;2.83;1.50;;;14.10;99.90;;;;;;5038950;28;20092;-82
2023/05/14 09:49:21;;;;;;;2.40;1.20;;;14.10;99.90;;;;;;5039093;28;20021;-81
2023/05/14 09:51:48;;;;;;;1.92;1.05;;;14.10;99.90;;;;;;5007994;28;20025;-82
2023/05/14 09:54:14;;;;;;;1.55;0.90;;;14.20;99.90;;;;;;5034233;28;20033;-81
2023/05/14 09:56:40;;;;;;;2.05;1.00;;;14.20;99.90;;;;;;5044376;28;20033;-82
2023/05/14 09:59:05;;;;;;;2.42;1.00;;;14.10;99.90;;;;;;5044275;28;20436;-81
2023/05/14 10:01:32;;;;;;;1.42;1.00;;;14.00;99.90;;;;;;5028788;28;20026;-81
2023/05/14 10:03:58;;;;;;;1.70;1.08;;;14.00;99.90;;;;;;5040236;28;20021;-81
2023/05/14 10:06:30;;;;;;;1.88;1.10;;;14.00;99.90;;;;;;5032740;28;20020;-81
2023/05/14 10:09:00;;;;;;;1.98;1.10;;;14.10;99.90;;;;;;5031129;28;20481;-82
2023/05/14 10:11:30;;;;;;;2.13;1.10;;;14.20;99.90;;;;;;5022025;28;20036;-82
2023/05/14 10:14:19;;;;;;;4.13;2.60;;;14.20;99.90;;;;;;5039710;28;20085;-82
2023/05/14 10:16:48;;;;;;;3.50;1.40;;;14.10;99.90;;;;;;5021131;28;20022;-82
2023/05/14 10:19:16;;;;;;;3.85;1.40;;;14.10;99.90;;;;;;5038691;28;20029;-82
2023/05/14 10:21:46;;;;;;;2.22;1.10;;;14.20;99.90;;;;;;5041402;28;20102;-82
2023/05/14 10:24:12;;;;;;;2.97;1.27;;;14.20;99.90;;;;;;5048500;28;20022;-82
2023/05/14 10:26:40;;;;;;;27.35;5.57;;;14.20;99.90;;;;;;5031105;28;20037;-82
2023/05/14 10:29:08;;;;;;;2.30;1.20;;;14.20;99.90;;;;;;5042748;28;20021;-80
2023/05/14 10:31:54;;;;;;;3.67;1.42;;;14.30;99.90;;;;;;5021074;28;20025;-81
2023/05/14 10:34:40;;;;;;;9.60;2.80;;;14.40;99.90;;;;;;5021735;28;20076;-81
2023/05/14 10:37:14;;;;;;;1.58;0.90;;;14.50;99.90;;;;;;5039752;28;20052;-82
2023/05/14 10:39:53;;;;;;;1.13;0.82;;;14.50;99.90;;;;;;5039801;28;20376;-81
2023/05/14 10:42:26;;;;;;;1.65;0.88;;;14.60;99.90;;;;;;5039895;28;20075;-81
2023/05/14 10:44:56;;;;;;;1.20;0.73;;;14.60;99.90;;;;;;5038760;28;20080;-81
2023/05/14 10:47:25;;;;;;;4.13;1.00;;;14.70;99.90;;;;;;5038927;28;20425;-81
2023/05/14 10:49:54;;;;;;;2.08;0.60;;;14.70;99.90;;;;;;5020261;28;20117;-81
2023/05/14 10:52:20;;;;;;;1.95;0.60;;;14.80;99.90;;;;;;5047890;28;20377;-81
2023/05/14 10:54:56;;;;;;;1.50;0.90;;;14.90;99.90;;;;;;5058179;28;20018;-81
2023/05/14 10:57:26;;;;;;;1.20;0.68;;;15.10;99.90;;;;;;5039217;28;20021;-81
2023/05/14 10:59:55;;;;;;;1.57;0.63;;;15.20;99.90;;;;;;5024622;28;20389;-81
2023/05/14 11:02:32;;;;;;;1.67;0.60;;;15.40;99.90;;;;;;5041210;28;20280;-80
2023/05/14 11:05:02;;;;;;;1.27;0.60;;;15.50;99.90;;;;;;5038447;28;20044;-79
2023/05/14 11:07:31;;;;;;;1.13;0.60;;;15.60;99.90;;;;;;5040000;28;20083;-81
2023/05/14 11:10:18;;;;;;;1.58;0.50;;;15.70;99.90;;;;;;5056362;28;20032;-80
2023/05/14 11:12:45;;;;;;;0.65;0.45;;;15.60;99.90;;;;;;5036884;28;20036;-80
2023/05/14 11:15:14;;;;;;;0.80;0.40;;;15.50;99.90;;;;;;5037406;28;20036;-79
2023/05/14 11:17:41;;;;;;;1.02;0.60;;;15.50;99.90;;;;;;5048128;28;20035;-79
2023/05/14 11:20:07;;;;;;;2.08;0.50;;;15.40;99.90;;;;;;5026268;28;20033;-80
2023/05/14 11:22:34;;;;;;;1.30;0.70;;;15.40;99.90;;;;;;5047850;28;20520;-80
2023/05/14 11:25:00;;;;;;;1.60;0.50;;;15.30;99.90;;;;;;5038329;28;20089;-80
2023/05/14 11:27:25;;;;;;;0.85;0.50;;;15.30;99.90;;;;;;5021951;28;20049;-80
2023/05/14 11:29:55;;;;;;;0.73;0.40;;;15.20;99.90;;;;;;5029364;28;20059;-78
2023/05/14 11:32:21;;;;;;;1.58;0.50;;;15.30;99.90;;;;;;5049723;28;20028;-80
2023/05/14 11:34:47;;;;;;;0.70;0.52;;;15.40;99.90;;;;;;5026650;28;20081;-80
2023/05/14 11:37:14;;;;;;;4.57;0.70;;;15.40;99.90;;;;;;5028611;28;20481;-80
2023/05/14 11:39:47;;;;;;;1.58;0.80;;;15.40;99.90;;;;;;5046833;28;20018;-80
2023/05/14 11:42:15;;;;;;;0.93;0.50;;;15.40;99.90;;;;;;5019820;28;20033;-80
2023/05/14 11:44:43;;;;;;;1.50;0.65;;;15.50;99.90;;;;;;5037898;28;20111;-80
2023/05/14 11:47:09;;;;;;;2.80;0.90;;;15.60;99.90;;;;;;5003905;28;20396;-80
2023/05/14 11:49:36;;;;;;;1.77;0.80;;;15.60;99.90;;;;;;5037070;28;20021;-80
2023/05/14 11:52:03;;;;;;;3.05;0.82;;;15.60;99.90;;;;;;5023498;28;20400;-80
2023/05/14 11:54:30;;;;;;;2.92;0.50;;;15.50;99.90;;;;;;5046822;28;20495;-80
2023/05/14 11:56:58;;;;;;;1.10;0.70;;;15.40;99.90;;;;;;5036319;28;20032;-80
2023/05/14 11:59:28;;;;;;;1.58;0.80;;;15.30;99.90;;;;;;5058477;28;20415;-80
2023/05/14 12:01:57;;;;;;;3.28;1.73;;;15.10;99.90;;;;;;5059644;28;20055;-80
2023/05/14 12:04:24;;;;;;;4.93;2.85;;;15.00;99.90;;;;;;5041801;28;20051;-80
2023/05/14 12:06:51;;;;;;;0.95;0.50;;;14.90;99.90;;;;;;5040118;28;20106;-80
2023/05/14 12:09:18;;;;;;;1.50;1.10;;;14.80;99.90;;;;;;5029240;28;20038;-80
2023/05/14 12:11:48;;;;;;;3.40;0.80;;;14.70;99.90;;;;;;5029766;28;20060;-80
2023/05/14 12:14:16;;;;;;;3.10;1.40;;;14.50;99.90;;;;;;5024400;28;20036;-80
2023/05/14 12:16:43;;;;;;;3.28;2.20;;;14.40;99.90;;;;;;5021717;28;20025;-80
2023/05/14 12:19:10;;;;;;;2.20;1.40;;;14.40;99.90;;;;;;5004088;28;20041;-81
2023/05/14 12:21:36;;;;;;;2.08;1.35;;;14.30;99.90;;;;;;5007311;28;20120;-80
2023/05/14 12:24:03;;;;;;;2.20;1.02;;;14.30;99.90;;;;;;5043259;28;20018;-80
2023/05/14 12:26:33;;;;;;;2.33;1.17;;;14.40;99.90;;;;;;5024616;28;20025;-80
2023/05/14 12:29:00;;;;;;;2.38;1.00;;;14.40;99.90;;;;;;5033748;28;20028;-80
2023/05/14 12:31:30;;;;;;;2.15;1.00;;;14.50;99.90;;;;;;5035056;28;20105;-80
2023/05/14 12:33:56;;;;;;;2.58;1.23;;;14.40;99.90;;;;;;5021234;28;20025;-80
2023/05/14 12:36:22;;;;;;;3.25;1.30;;;14.40;99.90;;;;;;5040042;28;20478;-80
2023/05/14 12:38:48;;;;;;;2.90;1.60;;;14.30;99.90;;;;;;5028076;28;20032;-80
2023/05/14 12:41:14;;;;;;;2.20;1.40;;;14.20;99.90;;;;;;5039584;28;20033;-78
2023/05/14 12:43:43;;;;;;;5.30;1.65;;;14.10;99.90;;;;;;5044068;28;20026;-78
2023/05/14 12:46:09;;;;;;;2.60;1.90;;;14.00;99.90;;;;;;5040387;28;20021;-80
2023/05/14 12:48:35;;;;;;;2.85;1.73;;;13.90;99.90;;;;;;5007025;28;20021;-80
2023/05/14 12:51:01;;;;;;;2.90;1.63;;;13.70;99.90;;;;;;5044004;28;20425;-80
2023/05/14 12:53:26;;;;;;;3.45;1.80;;;13.70;99.90;;;;;;5044946;28;20031;-80